Time;durP1;ratioP1;P1;durP2;ratioP2;P2;SDS_P1;SDS_P2;PMS_P1;PMS_P2;Temp;Humidity;BMP_temperature;BMP_pressure;BME280_temperature;BME280_humidity;BME280_pressure;Samples;Min_cycle;Max_cycle;Signal;HPM_P1;HPM_P2
2021/08/31 00:01:36;;;;;;;0.05;0.05;;;;;;;17.34;71.42;99296.63;5049258;28;20045;-67
2021/08/31 00:04:03;;;;;;;0.00;0.00;;;;;;;17.32;71.47;99290.63;5048402;28;20427;-68
2021/08/31 00:06:31;;;;;;;0.00;0.00;;;;;;;17.29;71.59;99296.34;5048309;28;20037;-67
2021/08/31 00:08:58;;;;;;;0.00;0.00;;;;;;;17.29;71.46;99291.00;5047443;28;20049;-69
2021/08/31 00:11:25;;;;;;;0.00;0.00;;;;;;;17.31;71.61;99292.47;5047934;28;20056;-68
2021/08/31 00:13:52;;;;;;;0.00;0.00;;;;;;;17.35;71.44;99291.09;5047810;28;20501;-66
2021/08/31 00:16:19;;;;;;;0.00;0.00;;;;;;;17.34;71.38;99288.59;5048852;28;20049;-66
2021/08/31 00:18:46;;;;;;;0.10;0.10;;;;;;;17.33;71.25;99294.97;5049152;28;20056;-67
2021/08/31 00:21:13;;;;;;;0.00;0.00;;;;;;;17.29;71.58;99297.16;5048890;28;20052;-68
2021/08/31 00:23:42;;;;;;;0.00;0.00;;;;;;;17.22;71.52;99296.22;5047709;28;20049;-65
2021/08/31 00:26:09;;;;;;;0.00;0.00;;;;;;;17.19;71.55;99291.22;5047867;28;20064;-67
2021/08/31 00:28:36;;;;;;;0.00;0.00;;;;;;;17.17;71.67;99298.59;5047645;28;20056;-67
2021/08/31 00:31:03;;;;;;;0.22;0.22;;;;;;;17.22;71.59;99300.72;5048348;28;20405;-67
2021/08/31 00:33:30;;;;;;;0.00;0.00;;;;;;;17.21;71.69;99294.53;5047433;28;20060;-67
2021/08/31 00:35:58;;;;;;;0.00;0.00;;;;;;;17.24;71.66;99304.88;5048690;28;20045;-67
2021/08/31 00:38:25;;;;;;;0.00;0.00;;;;;;;17.26;71.48;99302.03;5048660;28;20041;-67
2021/08/31 00:40:53;;;;;;;0.00;0.00;;;;;;;17.30;71.41;99300.66;5047919;28;20052;-66
2021/08/31 00:43:20;;;;;;;3.15;1.45;;;;;;;17.33;71.22;99309.13;5047559;28;20044;-66
2021/08/31 00:45:48;;;;;;;0.40;0.40;;;;;;;17.32;71.37;99299.50;5047942;28;20045;-67
2021/08/31 00:48:17;;;;;;;0.00;0.00;;;;;;;17.33;71.37;99303.81;5048001;28;20065;-66
2021/08/31 00:50:44;;;;;;;0.00;0.00;;;;;;;17.35;71.44;99291.09;5047745;28;20049;-67
2021/08/31 00:53:11;;;;;;;0.00;0.00;;;;;;;17.36;71.30;99294.63;5046269;28;20045;-67
2021/08/31 00:55:38;;;;;;;0.00;0.00;;;;;;;17.33;71.32;99295.78;5045811;28;20072;-66
2021/08/31 00:58:07;;;;;;;0.00;0.00;;;;;;;17.35;71.55;99293.78;5047853;28;20817;-67
2021/08/31 01:00:34;;;;;;;0.00;0.00;;;;;;;17.34;71.56;99293.94;5047923;28;20053;-66
2021/08/31 01:03:01;;;;;;;0.00;0.00;;;;;;;17.34;71.53;99284.13;5047284;28;20583;-66
2021/08/31 01:05:30;;;;;;;0.00;0.00;;;;;;;17.31;71.63;99295.16;5048137;28;20052;-72
2021/08/31 01:07:57;;;;;;;0.00;0.00;;;;;;;17.30;71.70;99298.81;5047884;28;20041;-68
2021/08/31 01:10:26;;;;;;;0.00;0.00;;;;;;;17.30;71.51;99292.66;5046692;28;20053;-68
2021/08/31 01:12:54;;;;;;;0.00;0.00;;;;;;;17.30;71.48;99290.81;5047991;28;20501;-68
2021/08/31 01:15:22;;;;;;;0.00;0.00;;;;;;;17.32;71.65;99293.28;5048155;28;20063;-69
2021/08/31 01:17:49;;;;;;;0.00;0.00;;;;;;;17.33;71.47;99287.78;5048138;28;20067;-68
2021/08/31 01:20:16;;;;;;;0.80;0.40;;;;;;;17.33;71.67;99292.31;5049261;28;20048;-67
2021/08/31 01:22:47;;;;;;;0.00;0.00;;;;;;;17.32;71.72;99286.13;5046070;28;20056;-71
2021/08/31 01:25:15;;;;;;;0.00;0.00;;;;;;;17.33;71.68;99278.97;5012639;28;20697;-71
2021/08/31 01:27:42;;;;;;;0.00;0.00;;;;;;;17.34;71.63;99275.25;5048207;28;20060;-72
2021/08/31 01:30:10;;;;;;;0.00;0.00;;;;;;;17.36;71.75;99267.94;5048106;28;20049;-69
2021/08/31 01:32:37;;;;;;;0.00;0.00;;;;;;;17.37;71.54;99277.59;5047295;28;20051;-68
2021/08/31 01:35:04;;;;;;;0.00;0.00;;;;;;;17.37;71.51;99283.75;5048426;28;20622;-66
2021/08/31 01:37:31;;;;;;;0.00;0.00;;;;;;;17.34;71.56;99278.78;5046791;28;20048;-67
2021/08/31 01:39:58;;;;;;;0.00;0.00;;;;;;;17.33;71.68;99271.78;5052850;28;20037;-72
2021/08/31 01:42:26;;;;;;;0.00;0.00;;;;;;;17.31;71.83;99262.28;5049198;28;20049;-68
2021/08/31 01:44:53;;;;;;;0.00;0.00;;;;;;;17.30;71.75;99274.78;5047275;28;20048;-69
2021/08/31 01:47:20;;;;;;;0.00;0.00;;;;;;;17.27;71.82;99266.31;5047295;28;20048;-71
2021/08/31 01:49:47;;;;;;;0.00;0.00;;;;;;;17.27;71.90;99264.50;5048354;28;20060;-69
2021/08/31 01:52:13;;;;;;;0.00;0.00;;;;;;;17.29;71.72;99265.13;5047854;28;20041;-68
2021/08/31 01:54:40;;;;;;;0.00;0.00;;;;;;;17.30;71.88;99264.13;5051653;28;20057;-68
2021/08/31 01:57:07;;;;;;;0.00;0.00;;;;;;;17.29;71.71;99267.00;5056537;28;20048;-71
2021/08/31 01:59:36;;;;;;;0.00;0.00;;;;;;;17.29;71.93;99256.31;5055092;28;20401;-74
2021/08/31 02:02:02;;;;;;;0.00;0.00;;;;;;;17.30;71.73;99261.44;5059241;28;20045;-68
2021/08/31 02:04:32;;;;;;;0.00;0.00;;;;;;;17.31;71.68;99262.28;5052942;28;20056;-70
2021/08/31 02:06:59;;;;;;;0.00;0.00;;;;;;;17.33;71.59;99260.28;5053337;28;20159;-67
2021/08/31 02:09:26;;;;;;;0.00;0.00;;;;;;;17.35;71.85;99263.59;5054572;28;20075;-68
2021/08/31 02:11:53;;;;;;;0.00;0.00;;;;;;;17.38;71.59;99263.25;5050930;28;20049;-68
2021/08/31 02:14:23;;;;;;;0.00;0.00;;;;;;;17.39;71.52;99260.41;5012685;28;20405;-66
2021/08/31 02:16:51;;;;;;;0.00;0.00;;;;;;;17.38;71.59;99261.41;5049967;28;20053;-67
2021/08/31 02:19:18;;;;;;;0.00;0.00;;;;;;;17.34;71.95;99257.44;5047749;28;20049;-69
2021/08/31 02:21:45;;;;;;;0.00;0.00;;;;;;;17.33;71.75;99261.09;5048645;28;20114;-67
2021/08/31 02:24:14;;;;;;;0.00;0.00;;;;;;;17.37;71.77;99264.22;5049429;28;20049;-69
2021/08/31 02:26:41;;;;;;;0.00;0.00;;;;;;;17.36;71.80;99255.41;5048175;28;20055;-67
2021/08/31 02:29:08;;;;;;;0.00;0.00;;;;;;;17.35;71.67;99253.75;5048673;28;20049;-65
2021/08/31 02:31:35;;;;;;;0.00;0.00;;;;;;;17.36;71.73;99254.59;5048838;28;20419;-68
2021/08/31 02:34:04;;;;;;;0.00;0.00;;;;;;;17.34;71.78;99254.75;5048067;28;20097;-69
2021/08/31 02:36:30;;;;;;;0.00;0.00;;;;;;;17.31;71.79;99247.09;5049922;28;20049;-70
2021/08/31 02:38:57;;;;;;;0.00;0.00;;;;;;;17.31;71.71;99247.09;5054548;28;20052;-68
2021/08/31 02:41:24;;;;;;;0.00;0.00;;;;;;;17.30;71.88;99247.28;5049165;28;20049;-71
2021/08/31 02:43:51;;;;;;;0.00;0.00;;;;;;;17.30;71.82;99256.09;5047150;28;20437;-70
2021/08/31 02:46:18;;;;;;;0.00;0.00;;;;;;;17.29;71.81;99249.13;5046823;28;20056;-68
2021/08/31 02:48:45;;;;;;;0.10;0.10;;;;;;;17.30;71.74;99247.28;5046860;28;20041;-68
2021/08/31 02:51:13;;;;;;;0.00;0.00;;;;;;;17.29;71.98;99242.97;5047424;28;20044;-68
2021/08/31 02:53:40;;;;;;;0.00;0.00;;;;;;;17.31;71.73;99236.44;5045536;28;20041;-67
2021/08/31 02:56:07;;;;;;;0.10;0.10;;;;;;;17.32;71.72;99234.59;5047014;28;20167;-71
2021/08/31 02:58:33;;;;;;;0.00;0.00;;;;;;;17.32;71.73;99230.09;5046437;28;20045;-69
2021/08/31 03:01:27;;;;;;;0.00;0.00;;;;;;;17.33;71.71;99229.06;5046653;28;20049;-68
2021/08/31 03:03:53;;;;;;;0.00;0.00;;;;;;;17.38;71.75;99233.88;5046070;28;20049;-68
2021/08/31 03:06:21;;;;;;;0.13;0.13;;;;;;;17.36;71.92;99230.56;5046501;28;20648;-67
2021/08/31 03:08:49;;;;;;;0.00;0.00;;;;;;;17.35;71.87;99237.72;5045762;28;20053;-67
2021/08/31 03:11:16;;;;;;;0.52;0.52;;;;;;;17.37;71.71;99232.22;5044479;28;20045;-69
2021/08/31 03:13:43;;;;;;;0.00;0.00;;;;;;;17.36;71.83;99230.56;5046790;28;20049;-67
2021/08/31 03:16:13;;;;;;;0.00;0.00;;;;;;;17.33;71.93;99237.06;5044775;28;20053;-68
2021/08/31 03:18:40;;;;;;;0.00;0.00;;;;;;;17.36;71.78;99236.72;5049189;28;20056;-66
2021/08/31 03:21:07;;;;;;;0.00;0.00;;;;;;;17.35;71.79;99237.72;5050293;28;20052;-68
2021/08/31 03:23:36;;;;;;;0.00;0.00;;;;;;;17.34;71.99;99235.22;5047607;28;20083;-68
2021/08/31 03:26:03;;;;;;;0.00;0.00;;;;;;;17.37;71.96;99238.38;5047839;28;20045;-70
2021/08/31 03:28:30;;;;;;;0.00;0.00;;;;;;;17.37;71.96;99242.88;5050287;28;20051;-69
2021/08/31 03:30:57;;;;;;;0.00;0.00;;;;;;;17.34;71.80;99241.41;5050422;28;20048;-68
2021/08/31 03:33:23;;;;;;;0.00;0.00;;;;;;;17.33;71.88;99245.09;5047657;28;20055;-68
2021/08/31 03:35:51;;;;;;;0.00;0.00;;;;;;;17.34;72.00;99246.75;5050037;28;20073;-67
2021/08/31 03:38:17;;;;;;;0.00;0.00;;;;;;;17.36;71.91;99250.06;5049834;28;20049;-69
2021/08/31 03:40:46;;;;;;;0.00;0.00;;;;;;;17.39;71.83;99238.19;5048966;28;20052;-71
2021/08/31 03:43:12;;;;;;;0.00;0.00;;;;;;;17.41;71.83;99243.34;5049841;28;20045;-71
2021/08/31 03:45:39;;;;;;;0.00;0.00;;;;;;;17.43;71.68;99239.50;5049760;28;20052;-69
2021/08/31 03:48:08;;;;;;;0.25;0.25;;;;;;;17.43;71.94;99239.50;5048709;28;20060;-69
2021/08/31 03:50:37;;;;;;;0.00;0.00;;;;;;;17.45;71.83;99240.16;5048756;28;20045;-69
2021/08/31 03:53:04;;;;;;;0.00;0.00;;;;;;;17.46;71.74;99244.47;5047530;28;20049;-70
2021/08/31 03:55:31;;;;;;;0.00;0.00;;;;;;;17.45;71.86;99244.66;5048739;28;20075;-69
2021/08/31 03:57:59;;;;;;;0.10;0.10;;;;;;;17.51;71.71;99246.59;5049028;28;20079;-68
2021/08/31 04:00:26;;;;;;;0.00;0.00;;;;;;;17.52;71.66;99242.91;5054842;28;20497;-69
2021/08/31 04:02:53;;;;;;;0.00;0.00;;;;;;;17.52;71.53;99238.44;5049039;28;20517;-68
2021/08/31 04:05:20;;;;;;;0.00;0.00;;;;;;;17.55;71.65;99245.22;5048097;28;20053;-67
2021/08/31 04:07:46;;;;;;;0.00;0.00;;;;;;;17.57;71.52;99246.72;5048640;28;20489;-70
2021/08/31 04:10:14;;;;;;;0.00;0.00;;;;;;;17.63;71.50;99249.66;5049649;28;20052;-68
2021/08/31 04:12:40;;;;;;;0.00;0.00;;;;;;;17.65;71.36;99242.31;5047311;28;20049;-70
2021/08/31 04:15:10;;;;;;;0.08;0.08;;;;;;;17.68;71.58;99253.47;5047512;28;20052;-71
2021/08/31 04:17:37;;;;;;;0.00;0.00;;;;;;;17.72;71.53;99252.09;5048894;28;20045;-73
2021/08/31 04:20:05;;;;;;;0.00;0.00;;;;;;;17.75;71.36;99249.06;5048166;28;20052;-73
2021/08/31 04:22:32;;;;;;;0.00;0.00;;;;;;;17.77;71.37;99260.38;5012079;28;20045;-70
2021/08/31 04:24:59;;;;;;;0.00;0.00;;;;;;;17.82;71.45;99248.31;5047396;28;20049;-69
2021/08/31 04:27:27;;;;;;;0.00;0.00;;;;;;;17.85;71.21;99258.63;5048294;28;20049;-68
2021/08/31 04:29:54;;;;;;;0.00;0.00;;;;;;;17.88;71.01;99263.63;5047009;28;20052;-79
2021/08/31 04:32:22;;;;;;;0.00;0.00;;;;;;;17.92;70.96;99259.59;5048123;28;20465;-72
2021/08/31 04:34:51;;;;;;;0.00;0.00;;;;;;;17.95;71.15;99261.88;5047262;28;20049;-70
2021/08/31 04:37:19;;;;;;;0.00;0.00;;;;;;;17.99;70.86;99265.88;5046599;28;20053;-66
2021/08/31 04:39:45;;;;;;;0.00;0.00;;;;;;;18.01;70.91;99265.69;5049098;28;20045;-73
2021/08/31 04:42:12;;;;;;;0.00;0.00;;;;;;;18.01;71.17;99263.00;5046285;28;20049;-69
2021/08/31 04:44:43;;;;;;;0.00;0.00;;;;;;;18.02;71.07;99265.47;5046545;28;20049;-76
2021/08/31 04:47:10;;;;;;;0.00;0.00;;;;;;;18.05;71.08;99275.81;5048547;28;20045;-74
2021/08/31 04:49:38;;;;;;;0.00;0.00;;;;;;;18.03;71.23;99277.84;5047973;28;20057;-75
2021/08/31 04:52:06;;;;;;;0.00;0.00;;;;;;;18.02;71.04;99276.16;5048095;28;20532;-74
2021/08/31 04:54:33;;;;;;;0.00;0.00;;;;;;;18.05;71.16;99281.16;5046911;28;20428;-74
2021/08/31 04:57:00;;;;;;;0.00;0.00;;;;;;;18.09;71.00;99274.41;5048497;28;20528;-73
2021/08/31 04:59:27;;;;;;;0.00;0.00;;;;;;;18.17;70.85;99267.31;5045821;28;20053;-74
2021/08/31 05:01:54;;;;;;;0.00;0.00;;;;;;;18.24;70.98;99273.59;5047840;28;20075;-72
2021/08/31 05:04:28;;;;;;;0.00;0.00;;;;;;;18.25;70.72;99280.59;5052865;28;20052;-72
2021/08/31 05:06:56;;;;;;;0.00;0.00;;;;;;;18.22;70.84;99280.97;5038887;28;20045;-73
2021/08/31 05:09:23;;;;;;;0.00;0.00;;;;;;;18.22;71.02;99286.31;5034723;28;20079;-70
2021/08/31 05:11:50;;;;;;;0.00;0.00;;;;;;;18.18;71.01;99283.19;5041202;28;20543;-70
2021/08/31 05:14:18;;;;;;;0.00;0.00;;;;;;;18.17;70.85;99284.22;5048320;28;21101;-74
2021/08/31 05:16:44;;;;;;;0.00;0.00;;;;;;;18.16;71.29;99287.88;5046277;28;20053;-70
2021/08/31 05:19:11;;;;;;;0.00;0.00;;;;;;;18.15;71.14;99272.88;5047846;28;20049;-67
2021/08/31 05:21:38;;;;;;;0.00;0.00;;;;;;;18.18;71.10;99282.34;5038712;28;20041;-69
2021/08/31 05:24:06;;;;;;;0.00;0.00;;;;;;;18.22;71.22;99275.63;5028896;28;20049;-70
2021/08/31 05:26:33;;;;;;;0.00;0.00;;;;;;;18.22;71.14;99278.28;5040683;28;20045;-73
2021/08/31 05:29:00;;;;;;;0.00;0.00;;;;;;;18.22;71.12;99275.63;5046544;28;20053;-73
2021/08/31 05:31:27;;;;;;;0.00;0.00;;;;;;;18.33;71.18;99269.84;5045292;28;20051;-69
2021/08/31 05:33:54;;;;;;;0.00;0.00;;;;;;;18.43;70.78;99266.84;5044792;28;20045;-69
2021/08/31 05:36:21;;;;;;;0.00;0.00;;;;;;;18.49;70.76;99272.31;5045102;28;20187;-70
2021/08/31 05:38:48;;;;;;;0.00;0.00;;;;;;;18.58;70.75;99272.19;5045561;28;20082;-70
2021/08/31 05:41:16;;;;;;;0.00;0.00;;;;;;;18.62;70.74;99268.97;5044501;28;20507;-71
2021/08/31 05:43:43;;;;;;;0.00;0.00;;;;;;;18.69;70.50;99266.34;5046448;28;20060;-71
2021/08/31 05:46:10;;;;;;;0.00;0.00;;;;;;;18.73;70.69;99263.09;5045687;28;20048;-71
2021/08/31 05:48:37;;;;;;;0.00;0.00;;;;;;;18.84;70.30;99269.84;5045404;28;20127;-72
2021/08/31 05:51:07;;;;;;;0.00;0.00;;;;;;;18.87;70.24;99269.47;5046096;28;20049;-77
2021/08/31 05:53:34;;;;;;;0.00;0.00;;;;;;;18.85;70.82;99282.22;5043853;28;20056;-73
2021/08/31 05:56:01;;;;;;;0.00;0.00;;;;;;;18.82;70.56;99274.56;5044708;28;20610;-72
2021/08/31 05:58:29;;;;;;;0.00;0.00;;;;;;;18.75;70.52;99284.31;5044237;28;20044;-73
2021/08/31 06:00:57;;;;;;;0.00;0.00;;;;;;;18.73;70.67;99291.72;5043067;28;20075;-73
2021/08/31 06:03:24;;;;;;;0.00;0.00;;;;;;;18.68;70.86;99284.25;5042514;28;20052;-72
2021/08/31 06:05:51;;;;;;;0.00;0.00;;;;;;;18.64;70.90;99298.19;5045136;28;20071;-75
2021/08/31 06:08:18;;;;;;;0.00;0.00;;;;;;;18.58;71.13;99298.91;5044957;28;20049;-75
2021/08/31 06:10:46;;;;;;;0.00;0.00;;;;;;;18.54;70.96;99295.78;5046211;28;20065;-74
2021/08/31 06:13:13;;;;;;;0.00;0.00;;;;;;;18.53;71.23;99297.66;5048099;28;20106;-77
2021/08/31 06:15:41;;;;;;;0.00;0.00;;;;;;;18.52;71.43;99292.47;5049709;28;20068;-77
2021/08/31 06:18:08;;;;;;;0.00;0.00;;;;;;;18.61;71.32;99287.84;5048482;28;20045;-74
2021/08/31 06:20:36;;;;;;;0.00;0.00;;;;;;;18.72;71.20;99284.69;5047417;28;20045;-75
2021/08/31 06:23:03;;;;;;;0.00;0.00;;;;;;;18.65;71.41;99281.09;5046275;28;20582;-71
2021/08/31 06:25:30;;;;;;;0.00;0.00;;;;;;;18.56;71.43;99296.44;5043107;28;20053;-72
2021/08/31 06:27:56;;;;;;;0.00;0.00;;;;;;;18.43;71.51;99299.75;5042918;28;20040;-71
2021/08/31 06:30:23;;;;;;;0.00;0.00;;;;;;;18.33;71.56;99300.06;5043118;28;20060;-70
2021/08/31 06:32:52;;;;;;;0.00;0.00;;;;;;;18.29;71.85;99297.94;5043135;28;20045;-71
2021/08/31 06:35:19;;;;;;;0.00;0.00;;;;;;;18.31;71.88;99295.91;5042180;28;20635;-70
2021/08/31 06:37:46;;;;;;;0.00;0.00;;;;;;;18.52;71.24;99295.16;5043990;28;20044;-71
2021/08/31 06:40:15;;;;;;;0.00;0.00;;;;;;;18.64;71.10;99290.16;5039329;28;20183;-70
2021/08/31 06:42:42;;;;;;;0.00;0.00;;;;;;;18.81;70.60;99288.94;5041081;28;20064;-72
2021/08/31 06:45:09;;;;;;;0.00;0.00;;;;;;;18.95;70.61;99294.47;5043901;28;20550;-71
2021/08/31 06:47:36;;;;;;;0.00;0.00;;;;;;;19.15;70.32;99297.34;5043395;28;20045;-69
2021/08/31 06:50:05;;;;;;;0.00;0.00;;;;;;;19.28;70.12;99284.94;5043333;28;20052;-70
2021/08/31 06:52:32;;;;;;;0.00;0.00;;;;;;;19.35;70.33;99286.81;5046989;28;20052;-68
2021/08/31 06:54:59;;;;;;;0.00;0.00;;;;;;;19.48;69.85;99289.59;5046468;28;20159;-70
2021/08/31 06:57:26;;;;;;;0.00;0.00;;;;;;;19.52;69.79;99287.38;5048209;28;20361;-70
2021/08/31 06:59:57;;;;;;;0.00;0.00;;;;;;;19.65;69.66;99293.69;5048623;28;20071;-70
2021/08/31 07:02:25;;;;;;;0.00;0.00;;;;;;;19.92;69.39;99295.78;5047715;28;20072;-70
2021/08/31 07:04:53;;;;;;;0.00;0.00;;;;;;;20.06;69.04;99292.16;5046268;28;20053;-71
2021/08/31 07:07:21;;;;;;;0.00;0.00;;;;;;;20.18;69.03;99300.47;5047134;28;20485;-71
2021/08/31 07:09:48;;;;;;;0.00;0.00;;;;;;;20.38;68.83;99309.47;5041908;28;20829;-70
2021/08/31 07:12:16;;;;;;;0.00;0.00;;;;;;;20.53;68.41;99306.66;5045874;28;20132;-69
2021/08/31 07:14:42;;;;;;;0.00;0.00;;;;;;;20.49;69.01;99304.56;5047742;28;20187;-71
2021/08/31 07:17:10;;;;;;;0.00;0.00;;;;;;;20.39;69.13;99303.06;5045665;28;20618;-70
2021/08/31 07:19:38;;;;;;;0.00;0.00;;;;;;;20.39;69.06;99299.56;5046255;28;20051;-76
2021/08/31 07:22:05;;;;;;;0.00;0.00;;;;;;;20.49;68.99;99300.03;5046430;28;20049;-72
2021/08/31 07:24:33;;;;;;;0.00;0.00;;;;;;;20.58;68.47;99298.84;5044614;28;20179;-72
2021/08/31 07:27:03;;;;;;;0.00;0.00;;;;;;;20.40;68.79;99288.66;5047713;28;20052;-74
2021/08/31 07:29:30;;;;;;;0.00;0.00;;;;;;;20.25;68.91;99282.56;5051555;28;20132;-77
2021/08/31 07:31:57;;;;;;;0.00;0.00;;;;;;;20.04;68.96;99287.00;5046826;28;20129;-76
2021/08/31 07:34:24;;;;;;;0.00;0.00;;;;;;;19.80;69.36;99290.13;5045874;28;20171;-75
2021/08/31 07:36:50;;;;;;;0.00;0.00;;;;;;;19.62;69.66;99280.66;5049787;28;20059;-76
2021/08/31 07:39:17;;;;;;;0.00;0.00;;;;;;;19.63;69.88;99279.66;5048986;28;20049;-76
2021/08/31 07:41:48;;;;;;;0.00;0.00;;;;;;;19.70;69.73;99289.59;5050432;28;20045;-71
2021/08/31 07:44:15;;;;;;;0.00;0.00;;;;;;;19.75;69.55;99281.81;5047289;28;20453;-75
2021/08/31 07:46:46;;;;;;;0.55;0.55;;;;;;;19.72;69.49;99280.34;5046497;28;20052;-74
2021/08/31 07:49:13;;;;;;;0.00;0.00;;;;;;;19.69;69.42;99280.72;5047222;28;20699;-75
2021/08/31 07:51:43;;;;;;;0.00;0.00;;;;;;;19.65;69.47;99277.59;5045854;28;20049;-75
2021/08/31 07:54:09;;;;;;;0.00;0.00;;;;;;;19.88;69.09;99291.81;5042643;28;20641;-73
2021/08/31 07:56:37;;;;;;;0.00;0.00;;;;;;;19.92;69.18;99293.09;5044594;28;20059;-72
2021/08/31 07:59:06;;;;;;;0.00;0.00;;;;;;;19.99;69.29;99285.94;5046493;28;20095;-73
2021/08/31 08:01:33;;;;;;;0.00;0.00;;;;;;;20.16;69.27;99289.94;5044370;28;20045;-73
2021/08/31 08:04:03;;;;;;;0.00;0.00;;;;;;;20.25;68.69;99296.78;5045423;28;20045;-74
2021/08/31 08:06:31;;;;;;;0.00;0.00;;;;;;;20.37;68.75;99305.13;5044275;28;20544;-75
2021/08/31 08:08:59;;;;;;;0.00;0.00;;;;;;;20.44;68.50;99308.66;5044310;28;20048;-75
2021/08/31 08:11:26;;;;;;;0.00;0.00;;;;;;;20.53;68.07;99308.53;5027192;28;20057;-74
2021/08/31 08:13:53;;;;;;;0.00;0.00;;;;;;;20.66;67.41;99305.09;5027116;28;20051;-72
2021/08/31 08:16:21;;;;;;;0.00;0.00;;;;;;;20.68;67.58;99308.41;5024027;28;20049;-75
2021/08/31 08:18:52;;;;;;;0.00;0.00;;;;;;;20.78;67.70;99312.38;5026247;28;20537;-73
2021/08/31 08:21:19;;;;;;;0.00;0.00;;;;;;;21.00;67.35;99317.59;5025689;28;20054;-73
2021/08/31 08:23:46;;;;;;;0.00;0.00;;;;;;;21.28;66.82;99322.81;5024733;28;20049;-73
2021/08/31 08:26:13;;;;;;;0.00;0.00;;;;;;;21.54;66.25;99322.06;5027832;28;20470;-74
2021/08/31 08:28:40;;;;;;;0.00;0.00;;;;;;;21.86;65.84;99321.44;5024753;28;20052;-74
2021/08/31 08:31:07;;;;;;;0.00;0.00;;;;;;;22.00;65.70;99317.69;5024034;28;20057;-77
2021/08/31 08:33:36;;;;;;;0.00;0.00;;;;;;;21.59;66.22;99318.78;5025089;28;20045;-75
2021/08/31 08:36:05;;;;;;;0.00;0.00;;;;;;;21.22;67.13;99330.88;5024055;28;20417;-77
2021/08/31 08:38:33;;;;;;;0.00;0.00;;;;;;;21.10;67.38;99325.25;5023591;28;20049;-75
2021/08/31 08:41:04;;;;;;;0.00;0.00;;;;;;;20.88;67.56;99338.00;5022628;28;20044;-77
2021/08/31 08:43:31;;;;;;;0.00;0.00;;;;;;;20.65;67.90;99338.31;5045774;28;20049;-74
2021/08/31 08:46:01;;;;;;;0.00;0.00;;;;;;;20.66;68.18;99337.28;5053685;28;20469;-76
2021/08/31 08:48:28;;;;;;;0.00;0.00;;;;;;;20.71;67.99;99341.03;5045301;28;20056;-72
2021/08/31 08:50:57;;;;;;;0.00;0.00;;;;;;;20.71;67.84;99346.38;5045048;28;20092;-74
2021/08/31 08:53:26;;;;;;;0.00;0.00;;;;;;;20.56;67.96;99342.97;5042007;28;20045;-76
2021/08/31 08:55:55;;;;;;;0.00;0.00;;;;;;;20.40;68.42;99339.59;5045350;28;20052;-74
2021/08/31 08:58:22;;;;;;;0.00;0.00;;;;;;;20.34;68.56;99337.69;5044178;28;20083;-76
2021/08/31 09:00:55;;;;;;;0.00;0.00;;;;;;;20.29;68.63;99336.63;5044359;28;20060;-74
2021/08/31 09:03:24;;;;;;;0.00;0.00;;;;;;;20.30;68.53;99339.13;5044693;28;20057;-73
2021/08/31 09:06:06;;;;;;;0.00;0.00;;;;;;;20.38;68.41;99325.56;5041354;28;20477;-74
2021/08/31 09:08:34;;;;;;;0.00;0.00;;;;;;;20.77;67.60;99334.84;5043448;28;20512;-73
2021/08/31 09:11:16;;;;;;;0.00;0.00;;;;;;;20.81;67.43;99330.75;5042844;28;20052;-72
2021/08/31 09:13:43;;;;;;;0.00;0.00;;;;;;;20.65;67.57;99328.38;5043578;28;20057;-73
2021/08/31 09:16:28;;;;;;;0.00;0.00;;;;;;;20.56;68.19;99332.25;5042478;28;20045;-75
2021/08/31 09:18:57;;;;;;;0.00;0.00;;;;;;;20.60;68.11;99333.53;5044912;28;20084;-74
2021/08/31 09:21:28;;;;;;;0.00;0.00;;;;;;;20.90;67.67;99339.44;5054256;28;20045;-75
2021/08/31 09:23:58;;;;;;;0.00;0.00;;;;;;;21.08;67.28;99338.88;5042075;28;20049;-76
2021/08/31 09:26:38;;;;;;;0.00;0.00;;;;;;;21.25;67.14;99336.66;5043315;28;20457;-75
2021/08/31 09:29:14;;;;;;;0.00;0.00;;;;;;;21.41;66.40;99340.84;5052730;28;20128;-76
2021/08/31 09:31:46;;;;;;;0.00;0.00;;;;;;;21.36;66.57;99348.66;5043168;28;20057;-77
2021/08/31 09:34:38;;;;;;;0.00;0.00;;;;;;;21.22;67.33;99350.50;5044556;28;20061;-79
2021/08/31 09:37:33;;;;;;;0.00;0.00;;;;;;;21.10;67.68;99336.81;5044197;28;20053;-77
2021/08/31 09:40:05;;;;;;;0.10;0.10;;;;;;;21.19;67.31;99338.31;5043090;28;20049;-77
2021/08/31 09:42:33;;;;;;;0.00;0.00;;;;;;;21.21;67.30;99330.03;5045087;28;20098;-76
2021/08/31 09:45:08;;;;;;;0.00;0.00;;;;;;;21.29;67.29;99340.59;5046432;28;20493;-75
2021/08/31 09:47:36;;;;;;;0.00;0.00;;;;;;;21.56;66.93;99332.59;5045821;28;20132;-78
2021/08/31 09:50:04;;;;;;;0.00;0.00;;;;;;;22.27;66.17;99342.75;5045451;28;20067;-75
2021/08/31 09:52:34;;;;;;;0.00;0.00;;;;;;;22.76;65.13;99337.00;5045778;28;20046;-76
2021/08/31 09:55:00;;;;;;;0.08;0.08;;;;;;;23.47;64.03;99342.25;5042999;28;20109;-72
2021/08/31 09:57:30;;;;;;;0.00;0.00;;;;;;;23.60;63.95;99341.31;5044796;28;20049;-74
2021/08/31 09:59:58;;;;;;;0.00;0.00;;;;;;;23.56;64.70;99331.22;5045074;28;20444;-74
2021/08/31 10:02:26;;;;;;;0.00;0.00;;;;;;;23.42;65.20;99339.38;5044051;28;20060;-77
2021/08/31 10:04:53;;;;;;;0.00;0.00;;;;;;;23.01;65.92;99340.63;5047193;28;20495;-76
2021/08/31 10:07:22;;;;;;;0.00;0.00;;;;;;;22.84;66.37;99348.34;5042507;28;20401;-70
2021/08/31 10:09:52;;;;;;;0.00;0.00;;;;;;;22.90;66.57;99355.59;5040614;28;20045;-70
2021/08/31 10:12:21;;;;;;;0.00;0.00;;;;;;;22.95;66.47;99357.63;5040422;28;20680;-74
2021/08/31 10:14:52;;;;;;;0.00;0.00;;;;;;;22.73;66.56;99356.28;5042721;28;20045;-72
2021/08/31 10:17:23;;;;;;;0.00;0.00;;;;;;;22.21;67.33;99361.56;5041110;28;20132;-70
2021/08/31 10:19:52;;;;;;;0.00;0.00;;;;;;;21.64;67.95;99361.13;5041801;28;20721;-72
2021/08/31 10:22:21;;;;;;;0.00;0.00;;;;;;;21.29;68.60;99363.94;5041610;28;20057;-72
2021/08/31 10:24:50;;;;;;;0.00;0.00;;;;;;;20.94;69.43;99377.44;5041226;28;20041;-72
2021/08/31 10:27:34;;;;;;;0.00;0.00;;;;;;;20.65;69.87;99378.53;5041346;28;20118;-76
2021/08/31 10:30:39;;;;;;;0.00;0.00;;;;;;;20.17;70.23;99369.34;5042551;28;20051;-75
2021/08/31 10:33:34;;;;;;;0.00;0.00;;;;;;;19.74;70.81;99372.09;5042357;28;20048;-75
2021/08/31 10:36:02;;;;;;;0.00;0.00;;;;;;;19.54;70.89;99377.25;5041812;28;20401;-76
2021/08/31 10:38:54;;;;;;;0.00;0.00;;;;;;;19.34;71.03;99370.84;5042085;28;20128;-75
2021/08/31 10:41:47;;;;;;;0.00;0.00;;;;;;;19.28;71.05;99375.94;5014742;28;20053;-77
2021/08/31 10:44:38;;;;;;;0.00;0.00;;;;;;;19.18;71.20;99377.28;5044151;28;20062;-75
2021/08/31 10:47:31;;;;;;;0.00;0.00;;;;;;;19.10;70.95;99380.88;5043392;28;20045;-75
2021/08/31 10:50:17;;;;;;;0.00;0.00;;;;;;;19.03;71.39;99379.97;5043795;28;20045;-77
2021/08/31 10:55:48;;;;;;;0.08;0.08;;;;;;;19.16;70.84;99382.81;5045112;28;19921;-77
2021/08/31 10:58:47;;;;;;;0.15;0.15;;;;;;;19.15;70.88;99373.13;5049821;28;20072;-77
2021/08/31 11:01:17;;;;;;;0.00;0.00;;;;;;;19.32;70.92;99370.19;5038438;28;20049;-76
2021/08/31 11:03:45;;;;;;;0.00;0.00;;;;;;;19.43;70.48;99380.44;5043548;28;20102;-76
2021/08/31 11:06:33;;;;;;;0.00;0.00;;;;;;;19.36;70.96;99369.66;5041118;28;20049;-75
2021/08/31 11:09:20;;;;;;;0.00;0.00;;;;;;;19.38;70.67;99378.31;5048131;28;20045;-78
2021/08/31 11:12:01;;;;;;;0.00;0.00;;;;;;;19.51;70.46;99377.63;5055778;28;20057;-79
2021/08/31 11:14:42;;;;;;;0.00;0.00;;;;;;;19.67;70.00;99381.91;5056760;28;20060;-79
2021/08/31 11:17:13;;;;;;;0.00;0.00;;;;;;;19.61;70.07;99385.34;5049677;28;20064;-79
2021/08/31 11:19:40;;;;;;;0.00;0.00;;;;;;;19.64;70.14;99385.81;5048183;28;20056;-77
2021/08/31 11:22:09;;;;;;;0.00;0.00;;;;;;;19.84;69.45;99382.47;5051499;28;20532;-79
2021/08/31 11:24:37;;;;;;;0.00;0.00;;;;;;;20.01;69.33;99389.22;5024331;28;20045;-79
2021/08/31 11:27:06;;;;;;;0.00;0.00;;;;;;;20.14;68.95;99383.13;5036283;28;20187;-76
2021/08/31 11:29:33;;;;;;;0.00;0.00;;;;;;;20.08;68.95;99372.34;5031700;28;20054;-78
2021/08/31 11:32:04;;;;;;;0.15;0.15;;;;;;;20.04;68.97;99366.56;5029420;28;20183;-78
2021/08/31 11:34:33;;;;;;;0.00;0.00;;;;;;;20.08;69.36;99365.16;5050401;28;20091;-79
2021/08/31 11:37:06;;;;;;;0.00;0.00;;;;;;;20.23;68.83;99363.19;5043123;28;20080;-75
2021/08/31 11:39:34;;;;;;;0.00;0.00;;;;;;;20.15;69.19;99367.88;5065070;28;20234;-77
2021/08/31 11:42:03;;;;;;;0.00;0.00;;;;;;;20.14;69.10;99368.91;5058375;28;20072;-76
2021/08/31 11:44:32;;;;;;;0.00;0.00;;;;;;;20.10;69.40;99376.53;5027072;28;20045;-77
2021/08/31 11:47:00;;;;;;;0.00;0.00;;;;;;;20.10;69.51;99371.16;5045304;28;20626;-76